sensor_id;sensor_type;location;lat;lon;timestamp;temperature;humidity
26707;DHT22;14319;49.422;10.934;2023-04-25T00:00:05;8.70;79.80
26707;DHT22;14319;49.422;10.934;2023-04-25T00:02:12;8.80;79.40
26707;DHT22;14319;49.422;10.934;2023-04-25T00:04:13;8.80;80.90
26707;DHT22;14319;49.422;10.934;2023-04-25T00:06:14;8.80;79.80
26707;DHT22;14319;49.422;10.934;2023-04-25T00:08:15;8.80;79.90
26707;DHT22;14319;49.422;10.934;2023-04-25T00:10:15;8.80;79.70
26707;DHT22;14319;49.422;10.934;2023-04-25T00:12:16;8.80;80.30
26707;DHT22;14319;49.422;10.934;2023-04-25T00:14:17;8.90;79.80
26707;DHT22;14319;49.422;10.934;2023-04-25T00:16:18;8.90;81.10
26707;DHT22;14319;49.422;10.934;2023-04-25T00:18:22;8.90;80.70
26707;DHT22;14319;49.422;10.934;2023-04-25T00:20:23;8.90;80.40
26707;DHT22;14319;49.422;10.934;2023-04-25T00:22:25;9.00;81.40
26707;DHT22;14319;49.422;10.934;2023-04-25T00:24:25;8.90;81.20
26707;DHT22;14319;49.422;10.934;2023-04-25T00:26:26;9.10;82.10
26707;DHT22;14319;49.422;10.934;2023-04-25T00:28:27;9.10;82.20
26707;DHT22;14319;49.422;10.934;2023-04-25T00:30:27;9.10;81.50
26707;DHT22;14319;49.422;10.934;2023-04-25T00:32:28;9.20;81.80
26707;DHT22;14319;49.422;10.934;2023-04-25T00:34:29;9.20;82.10
26707;DHT22;14319;49.422;10.934;2023-04-25T00:36:29;9.20;80.40
26707;DHT22;14319;49.422;10.934;2023-04-25T00:38:30;9.20;81.80
26707;DHT22;14319;49.422;10.934;2023-04-25T00:40:32;9.20;81.60
26707;DHT22;14319;49.422;10.934;2023-04-25T00:42:32;9.20;82.50
26707;DHT22;14319;49.422;10.934;2023-04-25T00:44:34;9.20;82.00
26707;DHT22;14319;49.422;10.934;2023-04-25T00:46:36;9.30;81.80
26707;DHT22;14319;49.422;10.934;2023-04-25T00:48:37;9.20;81.10
26707;DHT22;14319;49.422;10.934;2023-04-25T00:50:37;9.20;81.80
26707;DHT22;14319;49.422;10.934;2023-04-25T00:52:40;9.20;81.30
26707;DHT22;14319;49.422;10.934;2023-04-25T00:54:41;9.20;80.50
26707;DHT22;14319;49.422;10.934;2023-04-25T00:56:42;9.10;81.30
26707;DHT22;14319;49.422;10.934;2023-04-25T00:58:43;9.10;80.30
26707;DHT22;14319;49.422;10.934;2023-04-25T01:00:45;9.10;81.20
26707;DHT22;14319;49.422;10.934;2023-04-25T01:02:47;9.10;81.30
26707;DHT22;14319;49.422;10.934;2023-04-25T01:04:48;9.00;80.50
26707;DHT22;14319;49.422;10.934;2023-04-25T01:06:49;9.00;82.30
26707;DHT22;14319;49.422;10.934;2023-04-25T01:08:51;9.00;80.80
26707;DHT22;14319;49.422;10.934;2023-04-25T01:10:51;9.00;82.30
26707;DHT22;14319;49.422;10.934;2023-04-25T01:12:52;9.00;81.30
26707;DHT22;14319;49.422;10.934;2023-04-25T01:14:53;9.00;82.00
26707;DHT22;14319;49.422;10.934;2023-04-25T01:16:53;9.00;82.50
26707;DHT22;14319;49.422;10.934;2023-04-25T01:18:55;9.10;82.40
26707;DHT22;14319;49.422;10.934;2023-04-25T01:21:03;8.90;82.50
26707;DHT22;14319;49.422;10.934;2023-04-25T01:23:06;8.90;81.90
26707;DHT22;14319;49.422;10.934;2023-04-25T01:25:07;8.80;82.60
26707;DHT22;14319;49.422;10.934;2023-04-25T01:27:09;8.70;81.80
26707;DHT22;14319;49.422;10.934;2023-04-25T01:29:10;8.70;83.00
26707;DHT22;14319;49.422;10.934;2023-04-25T01:31:12;8.70;83.30
26707;DHT22;14319;49.422;10.934;2023-04-25T01:33:13;8.60;81.40
26707;DHT22;14319;49.422;10.934;2023-04-25T01:35:14;8.50;81.70
26707;DHT22;14319;49.422;10.934;2023-04-25T01:37:16;8.60;81.90
26707;DHT22;14319;49.422;10.934;2023-04-25T01:39:18;8.80;83.30
26707;DHT22;14319;49.422;10.934;2023-04-25T01:41:19;8.90;82.90
26707;DHT22;14319;49.422;10.934;2023-04-25T01:43:20;9.00;82.40
26707;DHT22;14319;49.422;10.934;2023-04-25T01:45:21;9.00;80.90
26707;DHT22;14319;49.422;10.934;2023-04-25T01:47:22;9.00;81.40
26707;DHT22;14319;49.422;10.934;2023-04-25T01:49:23;9.00;81.70
26707;DHT22;14319;49.422;10.934;2023-04-25T01:51:24;9.00;82.10
26707;DHT22;14319;49.422;10.934;2023-04-25T01:53:24;9.00;81.70
26707;DHT22;14319;49.422;10.934;2023-04-25T01:55:26;9.00;81.40
26707;DHT22;14319;49.422;10.934;2023-04-25T01:57:38;9.10;82.20
26707;DHT22;14319;49.422;10.934;2023-04-25T01:59:39;9.10;81.90
26707;DHT22;14319;49.422;10.934;2023-04-25T02:01:51;9.10;81.30
26707;DHT22;14319;49.422;10.934;2023-04-25T02:03:59;9.00;81.50
26707;DHT22;14319;49.422;10.934;2023-04-25T02:06:06;9.00;81.70
26707;DHT22;14319;49.422;10.934;2023-04-25T02:08:10;9.00;82.10
26707;DHT22;14319;49.422;10.934;2023-04-25T02:10:10;9.00;82.60
26707;DHT22;14319;49.422;10.934;2023-04-25T02:12:23;9.00;82.50
26707;DHT22;14319;49.422;10.934;2023-04-25T02:14:38;9.00;82.10
26707;DHT22;14319;49.422;10.934;2023-04-25T02:16:48;9.00;82.30
26707;DHT22;14319;49.422;10.934;2023-04-25T02:18:51;9.10;81.80
26707;DHT22;14319;49.422;10.934;2023-04-25T02:20:53;9.00;82.60
26707;DHT22;14319;49.422;10.934;2023-04-25T02:22:54;9.00;82.70
26707;DHT22;14319;49.422;10.934;2023-04-25T02:24:55;8.90;83.00
26707;DHT22;14319;49.422;10.934;2023-04-25T02:26:56;8.90;83.10
26707;DHT22;14319;49.422;10.934;2023-04-25T02:28:57;8.90;82.90
26707;DHT22;14319;49.422;10.934;2023-04-25T02:30:57;9.00;82.70
26707;DHT22;14319;49.422;10.934;2023-04-25T02:32:59;9.00;82.80
26707;DHT22;14319;49.422;10.934;2023-04-25T02:35:01;9.00;83.30
26707;DHT22;14319;49.422;10.934;2023-04-25T02:37:04;9.00;83.10
26707;DHT22;14319;49.422;10.934;2023-04-25T02:39:05;9.00;83.10
26707;DHT22;14319;49.422;10.934;2023-04-25T02:41:06;8.90;83.30
26707;DHT22;14319;49.422;10.934;2023-04-25T02:43:07;9.00;83.30
26707;DHT22;14319;49.422;10.934;2023-04-25T02:45:08;9.00;82.80
26707;DHT22;14319;49.422;10.934;2023-04-25T02:47:10;9.00;83.20
26707;DHT22;14319;49.422;10.934;2023-04-25T02:49:10;8.90;83.60
26707;DHT22;14319;49.422;10.934;2023-04-25T02:51:11;9.00;83.80
26707;DHT22;14319;49.422;10.934;2023-04-25T02:53:12;9.00;83.80
26707;DHT22;14319;49.422;10.934;2023-04-25T02:55:19;9.00;83.50
26707;DHT22;14319;49.422;10.934;2023-04-25T02:57:20;9.10;83.10
26707;DHT22;14319;49.422;10.934;2023-04-25T02:59:21;9.00;82.70
26707;DHT22;14319;49.422;10.934;2023-04-25T03:01:22;9.00;82.80
26707;DHT22;14319;49.422;10.934;2023-04-25T03:03:22;9.10;82.60
26707;DHT22;14319;49.422;10.934;2023-04-25T03:05:23;9.00;82.70
26707;DHT22;14319;49.422;10.934;2023-04-25T03:07:24;9.10;82.90
26707;DHT22;14319;49.422;10.934;2023-04-25T03:09:25;9.00;83.00
26707;DHT22;14319;49.422;10.934;2023-04-25T03:11:26;9.00;83.10
26707;DHT22;14319;49.422;10.934;2023-04-25T03:13:27;9.00;82.70
26707;DHT22;14319;49.422;10.934;2023-04-25T03:15:29;8.80;82.40
26707;DHT22;14319;49.422;10.934;2023-04-25T03:17:31;8.60;82.90
26707;DHT22;14319;49.422;10.934;2023-04-25T03:19:32;8.60;83.80
26707;DHT22;14319;49.422;10.934;2023-04-25T03:21:34;8.60;84.30
26707;DHT22;14319;49.422;10.934;2023-04-25T03:23:35;8.70;84.40
26707;DHT22;14319;49.422;10.934;2023-04-25T03:25:36;8.80;83.70
26707;DHT22;14319;49.422;10.934;2023-04-25T03:27:38;8.90;83.60
26707;DHT22;14319;49.422;10.934;2023-04-25T03:29:40;8.90;83.60
26707;DHT22;14319;49.422;10.934;2023-04-25T03:31:41;8.90;82.90
26707;DHT22;14319;49.422;10.934;2023-04-25T03:33:41;8.90;83.10
26707;DHT22;14319;49.422;10.934;2023-04-25T03:35:42;8.90;83.20
26707;DHT22;14319;49.422;10.934;2023-04-25T03:37:43;8.80;83.50
26707;DHT22;14319;49.422;10.934;2023-04-25T03:39:49;8.80;83.10
26707;DHT22;14319;49.422;10.934;2023-04-25T03:41:50;8.80;82.60
26707;DHT22;14319;49.422;10.934;2023-04-25T03:43:52;8.80;82.40
26707;DHT22;14319;49.422;10.934;2023-04-25T03:45:53;8.70;82.20
26707;DHT22;14319;49.422;10.934;2023-04-25T03:47:56;8.60;82.40
26707;DHT22;14319;49.422;10.934;2023-04-25T03:49:56;8.60;83.40
26707;DHT22;14319;49.422;10.934;2023-04-25T03:51:57;8.50;83.30
26707;DHT22;14319;49.422;10.934;2023-04-25T03:53:58;8.40;83.20
26707;DHT22;14319;49.422;10.934;2023-04-25T03:56:05;8.40;84.10
26707;DHT22;14319;49.422;10.934;2023-04-25T03:58:09;8.30;83.80
26707;DHT22;14319;49.422;10.934;2023-04-25T04:00:11;8.40;83.40
26707;DHT22;14319;49.422;10.934;2023-04-25T04:02:15;8.20;83.40
26707;DHT22;14319;49.422;10.934;2023-04-25T04:04:16;8.20;83.90
26707;DHT22;14319;49.422;10.934;2023-04-25T04:06:17;8.30;84.60
26707;DHT22;14319;49.422;10.934;2023-04-25T04:08:22;8.30;84.20
26707;DHT22;14319;49.422;10.934;2023-04-25T04:10:23;8.20;83.80
26707;DHT22;14319;49.422;10.934;2023-04-25T04:12:23;8.30;83.90
26707;DHT22;14319;49.422;10.934;2023-04-25T04:14:24;8.30;84.20
26707;DHT22;14319;49.422;10.934;2023-04-25T04:16:25;8.30;83.40
26707;DHT22;14319;49.422;10.934;2023-04-25T04:18:26;8.20;84.00
26707;DHT22;14319;49.422;10.934;2023-04-25T04:20:29;8.20;84.00
26707;DHT22;14319;49.422;10.934;2023-04-25T04:22:33;8.10;84.20
26707;DHT22;14319;49.422;10.934;2023-04-25T04:24:39;8.10;84.60
26707;DHT22;14319;49.422;10.934;2023-04-25T04:26:41;8.10;84.40
26707;DHT22;14319;49.422;10.934;2023-04-25T04:29:04;8.10;84.30
26707;DHT22;14319;49.422;10.934;2023-04-25T04:31:21;7.90;85.10
26707;DHT22;14319;49.422;10.934;2023-04-25T04:33:22;8.00;85.10
26707;DHT22;14319;49.422;10.934;2023-04-25T04:35:29;8.10;84.50
26707;DHT22;14319;49.422;10.934;2023-04-25T04:37:30;8.10;84.70
26707;DHT22;14319;49.422;10.934;2023-04-25T04:39:32;8.20;85.20
26707;DHT22;14319;49.422;10.934;2023-04-25T04:41:53;8.20;84.60
26707;DHT22;14319;49.422;10.934;2023-04-25T04:44:10;8.10;85.20
26707;DHT22;14319;49.422;10.934;2023-04-25T04:46:18;8.10;84.40
26707;DHT22;14319;49.422;10.934;2023-04-25T04:48:39;8.10;84.60
26707;DHT22;14319;49.422;10.934;2023-04-25T04:50:55;8.00;84.80
26707;DHT22;14319;49.422;10.934;2023-04-25T04:53:04;8.00;84.70
26707;DHT22;14319;49.422;10.934;2023-04-25T04:55:28;7.90;85.20
26707;DHT22;14319;49.422;10.934;2023-04-25T04:58:04;8.00;85.50
26707;DHT22;14319;49.422;10.934;2023-04-25T05:00:20;8.00;85.10
26707;DHT22;14319;49.422;10.934;2023-04-25T05:02:21;8.10;84.80
26707;DHT22;14319;49.422;10.934;2023-04-25T05:04:43;8.10;84.20
26707;DHT22;14319;49.422;10.934;2023-04-25T05:07:02;8.20;84.40
26707;DHT22;14319;49.422;10.934;2023-04-25T05:09:16;8.30;84.50
26707;DHT22;14319;49.422;10.934;2023-04-25T05:11:57;8.40;84.10
26707;DHT22;14319;49.422;10.934;2023-04-25T05:14:27;8.50;84.00
26707;DHT22;14319;49.422;10.934;2023-04-25T05:16:48;8.60;84.00
26707;DHT22;14319;49.422;10.934;2023-04-25T05:19:18;8.70;83.70
26707;DHT22;14319;49.422;10.934;2023-04-25T05:21:45;8.60;83.10
26707;DHT22;14319;49.422;10.934;2023-04-25T05:24:06;8.60;83.60
26707;DHT22;14319;49.422;10.934;2023-04-25T05:26:44;8.50;83.40
26707;DHT22;14319;49.422;10.934;2023-04-25T05:28:58;8.40;83.10
26707;DHT22;14319;49.422;10.934;2023-04-25T05:31:17;8.50;83.80
26707;DHT22;14319;49.422;10.934;2023-04-25T05:33:29;8.40;83.50
26707;DHT22;14319;49.422;10.934;2023-04-25T05:35:30;8.40;84.00
26707;DHT22;14319;49.422;10.934;2023-04-25T05:37:31;8.50;84.50
26707;DHT22;14319;49.422;10.934;2023-04-25T05:39:40;8.70;83.60
26707;DHT22;14319;49.422;10.934;2023-04-25T05:41:40;8.70;83.40
26707;DHT22;14319;49.422;10.934;2023-04-25T05:44:16;8.80;83.00
26707;DHT22;14319;49.422;10.934;2023-04-25T05:46:36;8.80;82.70
26707;DHT22;14319;49.422;10.934;2023-04-25T05:48:47;8.70;82.80
26707;DHT22;14319;49.422;10.934;2023-04-25T05:51:11;8.80;83.10
26707;DHT22;14319;49.422;10.934;2023-04-25T05:53:21;8.80;82.90
26707;DHT22;14319;49.422;10.934;2023-04-25T05:55:28;8.80;82.50
26707;DHT22;14319;49.422;10.934;2023-04-25T05:57:29;8.80;82.40
26707;DHT22;14319;49.422;10.934;2023-04-25T05:59:30;8.70;82.80
26707;DHT22;14319;49.422;10.934;2023-04-25T06:01:31;8.70;83.70
26707;DHT22;14319;49.422;10.934;2023-04-25T06:03:32;8.80;83.60
26707;DHT22;14319;49.422;10.934;2023-04-25T06:05:33;8.70;82.70
26707;DHT22;14319;49.422;10.934;2023-04-25T06:07:33;8.80;82.60
26707;DHT22;14319;49.422;10.934;2023-04-25T06:09:34;8.60;82.90
26707;DHT22;14319;49.422;10.934;2023-04-25T06:11:35;8.70;83.50
26707;DHT22;14319;49.422;10.934;2023-04-25T06:13:35;8.80;84.20
26707;DHT22;14319;49.422;10.934;2023-04-25T06:15:36;8.80;84.30
26707;DHT22;14319;49.422;10.934;2023-04-25T06:17:36;8.80;82.70
26707;DHT22;14319;49.422;10.934;2023-04-25T06:19:38;8.80;82.70
26707;DHT22;14319;49.422;10.934;2023-04-25T06:21:38;8.60;83.00
26707;DHT22;14319;49.422;10.934;2023-04-25T06:23:39;8.40;84.30
26707;DHT22;14319;49.422;10.934;2023-04-25T06:25:45;8.40;84.50
26707;DHT22;14319;49.422;10.934;2023-04-25T06:27:46;8.50;86.30
26707;DHT22;14319;49.422;10.934;2023-04-25T06:29:47;8.40;86.50
26707;DHT22;14319;49.422;10.934;2023-04-25T06:31:48;8.00;86.50
26707;DHT22;14319;49.422;10.934;2023-04-25T06:33:49;8.00;89.40
26707;DHT22;14319;49.422;10.934;2023-04-25T06:35:50;7.90;89.50
26707;DHT22;14319;49.422;10.934;2023-04-25T06:37:55;7.90;89.20
26707;DHT22;14319;49.422;10.934;2023-04-25T06:39:57;8.10;88.20
26707;DHT22;14319;49.422;10.934;2023-04-25T06:41:58;7.90;89.50
26707;DHT22;14319;49.422;10.934;2023-04-25T06:44:20;8.00;89.70
26707;DHT22;14319;49.422;10.934;2023-04-25T06:46:26;8.00;88.80
26707;DHT22;14319;49.422;10.934;2023-04-25T06:48:28;8.10;91.30
26707;DHT22;14319;49.422;10.934;2023-04-25T06:50:29;8.20;88.10
26707;DHT22;14319;49.422;10.934;2023-04-25T06:52:30;8.10;88.40
26707;DHT22;14319;49.422;10.934;2023-04-25T06:54:30;8.20;89.50
26707;DHT22;14319;49.422;10.934;2023-04-25T06:56:55;8.20;89.00
26707;DHT22;14319;49.422;10.934;2023-04-25T06:58:56;8.20;88.20
26707;DHT22;14319;49.422;10.934;2023-04-25T07:01:22;8.40;87.40
26707;DHT22;14319;49.422;10.934;2023-04-25T07:03:24;8.20;88.30
26707;DHT22;14319;49.422;10.934;2023-04-25T07:05:28;8.30;88.80
26707;DHT22;14319;49.422;10.934;2023-04-25T07:07:30;8.30;88.40
26707;DHT22;14319;49.422;10.934;2023-04-25T07:09:32;8.30;87.90
26707;DHT22;14319;49.422;10.934;2023-04-25T07:11:34;8.30;88.00
26707;DHT22;14319;49.422;10.934;2023-04-25T07:13:35;8.20;87.10
26707;DHT22;14319;49.422;10.934;2023-04-25T07:15:35;8.10;87.50
26707;DHT22;14319;49.422;10.934;2023-04-25T07:17:36;8.00;86.50
26707;DHT22;14319;49.422;10.934;2023-04-25T07:19:37;7.70;85.30
26707;DHT22;14319;49.422;10.934;2023-04-25T07:21:40;7.70;87.60
26707;DHT22;14319;49.422;10.934;2023-04-25T07:23:41;7.60;85.10
26707;DHT22;14319;49.422;10.934;2023-04-25T07:25:46;7.50;84.60
26707;DHT22;14319;49.422;10.934;2023-04-25T07:27:48;7.20;86.40
26707;DHT22;14319;49.422;10.934;2023-04-25T07:29:51;7.10;85.70
26707;DHT22;14319;49.422;10.934;2023-04-25T07:31:52;7.00;88.00
26707;DHT22;14319;49.422;10.934;2023-04-25T07:33:54;7.20;88.70
26707;DHT22;14319;49.422;10.934;2023-04-25T07:35:55;7.30;88.40
26707;DHT22;14319;49.422;10.934;2023-04-25T07:37:56;7.50;89.50
26707;DHT22;14319;49.422;10.934;2023-04-25T07:39:58;7.40;86.10
26707;DHT22;14319;49.422;10.934;2023-04-25T07:41:58;7.40;84.70
26707;DHT22;14319;49.422;10.934;2023-04-25T07:44:02;7.30;85.50
26707;DHT22;14319;49.422;10.934;2023-04-25T07:46:04;7.50;87.30
26707;DHT22;14319;49.422;10.934;2023-04-25T07:48:07;7.60;85.20
26707;DHT22;14319;49.422;10.934;2023-04-25T07:50:11;7.40;84.00
26707;DHT22;14319;49.422;10.934;2023-04-25T07:52:12;7.40;86.60
26707;DHT22;14319;49.422;10.934;2023-04-25T07:54:17;7.40;84.50
26707;DHT22;14319;49.422;10.934;2023-04-25T07:56:26;7.50;85.80
26707;DHT22;14319;49.422;10.934;2023-04-25T07:58:27;7.60;87.50
26707;DHT22;14319;49.422;10.934;2023-04-25T08:00:32;7.70;87.00
26707;DHT22;14319;49.422;10.934;2023-04-25T08:02:52;7.90;88.20
26707;DHT22;14319;49.422;10.934;2023-04-25T08:04:54;7.80;87.10
26707;DHT22;14319;49.422;10.934;2023-04-25T08:06:55;7.70;86.10
26707;DHT22;14319;49.422;10.934;2023-04-25T08:09:00;7.80;86.70
26707;DHT22;14319;49.422;10.934;2023-04-25T08:11:08;7.90;85.80
26707;DHT22;14319;49.422;10.934;2023-04-25T08:13:08;8.00;85.10
26707;DHT22;14319;49.422;10.934;2023-04-25T08:15:09;8.00;85.00
26707;DHT22;14319;49.422;10.934;2023-04-25T08:17:13;8.30;87.00
26707;DHT22;14319;49.422;10.934;2023-04-25T08:19:15;8.40;87.00
26707;DHT22;14319;49.422;10.934;2023-04-25T08:21:16;8.50;85.60
26707;DHT22;14319;49.422;10.934;2023-04-25T08:23:18;8.60;84.30
26707;DHT22;14319;49.422;10.934;2023-04-25T08:25:27;8.80;84.80
26707;DHT22;14319;49.422;10.934;2023-04-25T08:27:28;9.00;84.20
26707;DHT22;14319;49.422;10.934;2023-04-25T08:29:28;9.00;79.80
26707;DHT22;14319;49.422;10.934;2023-04-25T08:31:29;9.20;78.60
26707;DHT22;14319;49.422;10.934;2023-04-25T08:33:33;9.20;79.90
26707;DHT22;14319;49.422;10.934;2023-04-25T08:35:57;9.20;79.70
26707;DHT22;14319;49.422;10.934;2023-04-25T08:37:59;9.10;75.90
26707;DHT22;14319;49.422;10.934;2023-04-25T08:40:01;9.00;79.30
26707;DHT22;14319;49.422;10.934;2023-04-25T08:42:12;8.90;78.70
26707;DHT22;14319;49.422;10.934;2023-04-25T08:44:13;9.10;79.90
26707;DHT22;14319;49.422;10.934;2023-04-25T08:46:17;9.20;79.60
26707;DHT22;14319;49.422;10.934;2023-04-25T08:48:42;9.40;78.80
26707;DHT22;14319;49.422;10.934;2023-04-25T08:50:55;9.50;78.70
26707;DHT22;14319;49.422;10.934;2023-04-25T08:52:58;9.50;79.90
26707;DHT22;14319;49.422;10.934;2023-04-25T08:55:02;9.30;79.20
26707;DHT22;14319;49.422;10.934;2023-04-25T08:57:05;9.20;77.90
26707;DHT22;14319;49.422;10.934;2023-04-25T08:59:06;9.10;79.70
26707;DHT22;14319;49.422;10.934;2023-04-25T09:01:09;9.00;79.70
26707;DHT22;14319;49.422;10.934;2023-04-25T09:03:18;9.10;80.40
26707;DHT22;14319;49.422;10.934;2023-04-25T09:05:20;9.30;82.00
26707;DHT22;14319;49.422;10.934;2023-04-25T09:07:26;9.40;81.20
26707;DHT22;14319;49.422;10.934;2023-04-25T09:09:29;9.50;80.10
26707;DHT22;14319;49.422;10.934;2023-04-25T09:11:30;9.60;78.80
26707;DHT22;14319;49.422;10.934;2023-04-25T09:13:32;9.50;78.30
26707;DHT22;14319;49.422;10.934;2023-04-25T09:15:55;9.70;78.70
26707;DHT22;14319;49.422;10.934;2023-04-25T09:18:10;9.80;77.90
26707;DHT22;14319;49.422;10.934;2023-04-25T09:20:15;9.70;79.50
26707;DHT22;14319;49.422;10.934;2023-04-25T09:22:17;9.80;77.30
26707;DHT22;14319;49.422;10.934;2023-04-25T09:26:33;9.80;78.20
26707;DHT22;14319;49.422;10.934;2023-04-25T09:28:35;9.80;76.80
26707;DHT22;14319;49.422;10.934;2023-04-25T09:30:38;10.10;77.80
26707;DHT22;14319;49.422;10.934;2023-04-25T09:32:45;10.30;74.10
26707;DHT22;14319;49.422;10.934;2023-04-25T09:34:56;10.60;76.30
26707;DHT22;14319;49.422;10.934;2023-04-25T09:37:01;10.70;76.70
26707;DHT22;14319;49.422;10.934;2023-04-25T09:39:20;10.80;74.30
26707;DHT22;14319;49.422;10.934;2023-04-25T09:41:29;10.80;76.30
26707;DHT22;14319;49.422;10.934;2023-04-25T09:43:34;10.80;76.00
26707;DHT22;14319;49.422;10.934;2023-04-25T09:45:41;10.70;73.80
26707;DHT22;14319;49.422;10.934;2023-04-25T09:47:42;10.60;75.00
26707;DHT22;14319;49.422;10.934;2023-04-25T09:49:44;10.30;73.50
26707;DHT22;14319;49.422;10.934;2023-04-25T09:51:59;10.00;74.40
26707;DHT22;14319;49.422;10.934;2023-04-25T09:54:06;10.20;75.70
26707;DHT22;14319;49.422;10.934;2023-04-25T09:56:11;10.30;76.30
26707;DHT22;14319;49.422;10.934;2023-04-25T09:58:13;10.30;73.80
26707;DHT22;14319;49.422;10.934;2023-04-25T10:00:14;10.40;74.70
26707;DHT22;14319;49.422;10.934;2023-04-25T10:02:17;10.70;74.10
26707;DHT22;14319;49.422;10.934;2023-04-25T10:04:25;10.70;73.90
26707;DHT22;14319;49.422;10.934;2023-04-25T10:06:39;10.90;72.40
26707;DHT22;14319;49.422;10.934;2023-04-25T10:08:43;11.00;71.40
26707;DHT22;14319;49.422;10.934;2023-04-25T10:10:46;10.50;71.90
26707;DHT22;14319;49.422;10.934;2023-04-25T10:12:49;10.20;70.40
26707;DHT22;14319;49.422;10.934;2023-04-25T10:14:50;10.20;68.60
26707;DHT22;14319;49.422;10.934;2023-04-25T10:16:51;10.40;68.20
26707;DHT22;14319;49.422;10.934;2023-04-25T10:18:54;10.40;65.70
26707;DHT22;14319;49.422;10.934;2023-04-25T10:20:57;10.60;66.00
26707;DHT22;14319;49.422;10.934;2023-04-25T10:23:12;10.80;65.00
26707;DHT22;14319;49.422;10.934;2023-04-25T10:25:14;11.00;66.40
26707;DHT22;14319;49.422;10.934;2023-04-25T10:27:15;11.20;64.40
26707;DHT22;14319;49.422;10.934;2023-04-25T10:29:25;11.40;65.10
26707;DHT22;14319;49.422;10.934;2023-04-25T10:31:26;11.20;64.80
26707;DHT22;14319;49.422;10.934;2023-04-25T10:33:38;11.20;65.70
26707;DHT22;14319;49.422;10.934;2023-04-25T10:35:38;10.90;65.20
26707;DHT22;14319;49.422;10.934;2023-04-25T10:40:08;9.80;65.70
26707;DHT22;14319;49.422;10.934;2023-04-25T10:42:10;10.10;68.90
26707;DHT22;14319;49.422;10.934;2023-04-25T10:44:11;9.90;67.70
26707;DHT22;14319;49.422;10.934;2023-04-25T10:46:28;9.90;67.70
26707;DHT22;14319;49.422;10.934;2023-04-25T10:48:31;10.40;70.40
26707;DHT22;14319;49.422;10.934;2023-04-25T10:50:38;10.60;65.80
26707;DHT22;14319;49.422;10.934;2023-04-25T10:52:40;10.90;64.30
26707;DHT22;14319;49.422;10.934;2023-04-25T10:55:02;10.50;67.50
26707;DHT22;14319;49.422;10.934;2023-04-25T10:57:03;10.30;66.20
26707;DHT22;14319;49.422;10.934;2023-04-25T10:59:14;10.40;64.10
26707;DHT22;14319;49.422;10.934;2023-04-25T11:01:24;9.90;65.90
26707;DHT22;14319;49.422;10.934;2023-04-25T11:03:25;9.90;64.90
26707;DHT22;14319;49.422;10.934;2023-04-25T11:05:33;9.90;67.00
26707;DHT22;14319;49.422;10.934;2023-04-25T11:09:40;10.30;65.30
26707;DHT22;14319;49.422;10.934;2023-04-25T11:11:41;10.50;63.60
26707;DHT22;14319;49.422;10.934;2023-04-25T11:13:41;10.20;61.30
26707;DHT22;14319;49.422;10.934;2023-04-25T11:15:42;10.40;63.90
26707;DHT22;14319;49.422;10.934;2023-04-25T11:17:42;10.20;63.40
26707;DHT22;14319;49.422;10.934;2023-04-25T11:19:48;10.00;62.40
26707;DHT22;14319;49.422;10.934;2023-04-25T11:21:49;10.00;65.80
26707;DHT22;14319;49.422;10.934;2023-04-25T11:23:50;10.00;64.10
26707;DHT22;14319;49.422;10.934;2023-04-25T11:25:50;10.10;64.20
26707;DHT22;14319;49.422;10.934;2023-04-25T11:27:54;10.10;67.00
26707;DHT22;14319;49.422;10.934;2023-04-25T11:29:56;9.90;63.40
26707;DHT22;14319;49.422;10.934;2023-04-25T11:31:57;10.00;65.50
26707;DHT22;14319;49.422;10.934;2023-04-25T11:34:01;10.30;63.70
26707;DHT22;14319;49.422;10.934;2023-04-25T11:36:03;10.60;63.60
26707;DHT22;14319;49.422;10.934;2023-04-25T11:38:04;10.80;61.30
26707;DHT22;14319;49.422;10.934;2023-04-25T11:40:05;11.10;61.90
26707;DHT22;14319;49.422;10.934;2023-04-25T11:42:06;11.20;60.00
26707;DHT22;14319;49.422;10.934;2023-04-25T11:44:07;10.80;61.20
26707;DHT22;14319;49.422;10.934;2023-04-25T11:46:08;10.90;62.90
26707;DHT22;14319;49.422;10.934;2023-04-25T11:48:08;11.20;61.10
26707;DHT22;14319;49.422;10.934;2023-04-25T11:50:09;11.20;61.10
26707;DHT22;14319;49.422;10.934;2023-04-25T11:52:10;11.60;61.10
26707;DHT22;14319;49.422;10.934;2023-04-25T11:54:11;11.80;58.30
26707;DHT22;14319;49.422;10.934;2023-04-25T11:56:12;11.90;60.70
26707;DHT22;14319;49.422;10.934;2023-04-25T11:58:13;11.30;59.00
26707;DHT22;14319;49.422;10.934;2023-04-25T12:00:19;11.30;60.20
26707;DHT22;14319;49.422;10.934;2023-04-25T12:02:24;11.30;61.50
26707;DHT22;14319;49.422;10.934;2023-04-25T12:04:25;10.90;59.00
26707;DHT22;14319;49.422;10.934;2023-04-25T12:06:27;10.80;59.10
26707;DHT22;14319;49.422;10.934;2023-04-25T12:08:28;11.10;61.80
26707;DHT22;14319;49.422;10.934;2023-04-25T12:10:29;11.50;58.70
26707;DHT22;14319;49.422;10.934;2023-04-25T12:12:33;11.50;56.80
26707;DHT22;14319;49.422;10.934;2023-04-25T12:14:35;11.30;57.70
26707;DHT22;14319;49.422;10.934;2023-04-25T12:18:42;11.50;58.50
26707;DHT22;14319;49.422;10.934;2023-04-25T12:20:43;11.30;60.40
26707;DHT22;14319;49.422;10.934;2023-04-25T12:22:48;11.20;59.80
26707;DHT22;14319;49.422;10.934;2023-04-25T12:24:49;11.10;58.00
26707;DHT22;14319;49.422;10.934;2023-04-25T12:26:52;11.20;58.30
26707;DHT22;14319;49.422;10.934;2023-04-25T12:28:53;11.10;58.90
26707;DHT22;14319;49.422;10.934;2023-04-25T12:32:58;10.50;58.50
26707;DHT22;14319;49.422;10.934;2023-04-25T12:34:58;10.90;63.60
26707;DHT22;14319;49.422;10.934;2023-04-25T12:36:59;10.80;60.60
26707;DHT22;14319;49.422;10.934;2023-04-25T12:39:00;10.90;60.60
26707;DHT22;14319;49.422;10.934;2023-04-25T12:41:05;10.50;61.80
26707;DHT22;14319;49.422;10.934;2023-04-25T12:43:06;10.10;60.70
26707;DHT22;14319;49.422;10.934;2023-04-25T12:45:07;10.10;64.40
26707;DHT22;14319;49.422;10.934;2023-04-25T12:47:07;10.20;62.20
26707;DHT22;14319;49.422;10.934;2023-04-25T12:49:08;10.10;61.70
26707;DHT22;14319;49.422;10.934;2023-04-25T12:51:09;10.30;62.30
26707;DHT22;14319;49.422;10.934;2023-04-25T12:53:10;10.40;62.40
26707;DHT22;14319;49.422;10.934;2023-04-25T12:55:11;10.40;61.20
26707;DHT22;14319;49.422;10.934;2023-04-25T12:57:12;10.60;62.10
26707;DHT22;14319;49.422;10.934;2023-04-25T12:59:13;10.80;62.50
26707;DHT22;14319;49.422;10.934;2023-04-25T13:01:14;10.70;63.00
26707;DHT22;14319;49.422;10.934;2023-04-25T13:03:15;10.60;63.30
26707;DHT22;14319;49.422;10.934;2023-04-25T13:05:15;10.40;61.90
26707;DHT22;14319;49.422;10.934;2023-04-25T13:07:16;10.40;62.10
26707;DHT22;14319;49.422;10.934;2023-04-25T13:09:17;10.10;61.80
26707;DHT22;14319;49.422;10.934;2023-04-25T13:11:17;10.50;61.20
26707;DHT22;14319;49.422;10.934;2023-04-25T13:13:18;10.70;59.90